createdAt,value
2018-09-28T00:00:40.819Z,14.00
2018-09-28T00:04:14.076Z,11.20
2018-09-28T00:07:47.297Z,11.20
2018-09-28T00:11:20.522Z,12.57
2018-09-28T00:14:53.750Z,11.47
2018-09-28T00:18:26.987Z,11.37
2018-09-28T00:22:00.204Z,11.13
2018-09-28T00:25:33.439Z,11.57
2018-09-28T00:29:06.688Z,10.47
2018-09-28T00:32:39.912Z,11.63
2018-09-28T00:36:13.157Z,11.63
2018-09-28T00:39:46.399Z,11.83
2018-09-28T00:43:19.624Z,11.30
2018-09-28T00:46:52.857Z,11.77
2018-09-28T00:50:26.102Z,10.20
2018-09-28T00:53:59.336Z,11.27
2018-09-28T00:57:32.640Z,10.33
2018-09-28T01:01:05.889Z,10.50
2018-09-28T01:04:39.129Z,11.57
2018-09-28T01:08:12.359Z,9.87
2018-09-28T01:11:45.905Z,11.43
2018-09-28T01:15:19.127Z,10.07
2018-09-28T01:18:52.361Z,11.37
2018-09-28T01:22:25.600Z,10.93
2018-09-28T01:25:58.836Z,11.87
2018-09-28T01:29:32.136Z,10.80
2018-09-28T01:33:05.367Z,9.70
2018-09-28T01:36:38.595Z,10.93
2018-09-28T01:40:11.840Z,11.10
2018-09-28T01:43:45.081Z,12.03
2018-09-28T01:47:18.312Z,11.90
2018-09-28T01:50:51.544Z,12.17
2018-09-28T01:54:24.804Z,12.93
2018-09-28T01:57:58.424Z,11.50
2018-09-28T02:01:31.660Z,11.87
2018-09-28T02:05:04.896Z,11.03
2018-09-28T02:08:38.148Z,11.23
2018-09-28T02:12:11.389Z,11.20
2018-09-28T02:15:44.638Z,11.60
2018-09-28T02:19:17.875Z,11.73
2018-09-28T02:22:51.115Z,11.37
2018-09-28T02:26:24.360Z,12.53
2018-09-28T02:29:57.592Z,11.90
2018-09-28T02:33:30.824Z,11.27
2018-09-28T02:37:04.065Z,11.57
2018-09-28T02:40:37.294Z,11.77
2018-09-28T02:44:10.532Z,13.60
2018-09-28T02:47:43.772Z,12.17
2018-09-28T02:51:17.034Z,11.33
2018-09-28T02:54:50.274Z,12.30
2018-09-28T02:58:23.534Z,11.83
2018-09-28T03:01:57.394Z,13.53
2018-09-28T03:05:30.640Z,12.00
2018-09-28T03:09:05.168Z,11.80
2018-09-28T03:12:38.395Z,12.63
2018-09-28T03:16:11.644Z,13.10
2018-09-28T03:19:44.878Z,12.20
2018-09-28T03:23:18.117Z,12.17
2018-09-28T03:26:51.377Z,10.40
2018-09-28T03:30:24.617Z,10.30
2018-09-28T03:33:57.847Z,11.43
2018-09-28T03:37:31.084Z,9.87
2018-09-28T03:41:04.329Z,10.73
2018-09-28T03:44:37.560Z,11.50
2018-09-28T03:48:10.790Z,10.67
2018-09-28T03:51:44.024Z,10.90
2018-09-28T03:55:17.268Z,11.30
2018-09-28T03:58:50.545Z,12.17
2018-09-28T04:02:23.789Z,11.63
2018-09-28T04:05:57.024Z,10.87
2018-09-28T04:09:30.254Z,9.60
2018-09-28T04:13:03.480Z,10.10
2018-09-28T04:16:36.741Z,14.70
2018-09-28T04:20:09.989Z,11.10
2018-09-28T04:23:43.221Z,10.90
2018-09-28T04:27:16.519Z,9.10
2018-09-28T04:30:49.801Z,11.47
2018-09-28T04:34:23.044Z,13.93
2018-09-28T04:37:56.288Z,12.10
2018-09-28T04:41:29.530Z,13.20
2018-09-28T04:45:02.811Z,12.30
2018-09-28T04:48:36.077Z,13.80
2018-09-28T04:52:09.760Z,13.37
2018-09-28T04:55:42.997Z,12.10
2018-09-28T04:59:16.238Z,13.20
2018-09-28T05:02:49.467Z,10.63
2018-09-28T05:06:22.716Z,15.13
2018-09-28T05:09:55.948Z,16.30
2018-09-28T05:13:29.179Z,19.50
2018-09-28T05:17:02.549Z,19.13
2018-09-28T05:20:35.772Z,14.93
2018-09-28T05:24:09.145Z,17.33
2018-09-28T05:27:42.411Z,14.70
2018-09-28T05:31:15.907Z,16.70
2018-09-28T05:34:49.142Z,14.17
2018-09-28T05:38:22.397Z,13.90
2018-09-28T05:41:55.896Z,17.03
2018-09-28T05:45:29.200Z,14.40
2018-09-28T05:49:02.466Z,14.83
2018-09-28T05:52:35.722Z,15.77
2018-09-28T05:56:08.995Z,16.13
2018-09-28T05:59:47.604Z,17.27
2018-09-28T06:03:21.922Z,14.03
2018-09-28T06:06:55.164Z,17.53
2018-09-28T06:10:28.413Z,16.47
2018-09-28T06:14:01.666Z,12.03
2018-09-28T06:17:34.902Z,12.70
2018-09-28T06:21:08.153Z,15.03
2018-09-28T06:24:41.392Z,12.93
2018-09-28T06:28:14.636Z,12.17
2018-09-28T06:31:47.867Z,13.67
2018-09-28T06:35:21.104Z,17.90
2018-09-28T06:38:55.137Z,13.73
2018-09-28T06:42:29.124Z,11.60
2018-09-28T06:46:02.380Z,12.90
2018-09-28T06:49:35.696Z,15.70
2018-09-28T06:53:08.936Z,16.90
2018-09-28T06:56:42.180Z,14.77
2018-09-28T07:00:15.548Z,14.70
2018-09-28T07:03:48.841Z,14.90
2018-09-28T07:07:22.125Z,14.73
2018-09-28T07:10:55.366Z,17.60
2018-09-28T07:14:28.626Z,18.83
2018-09-28T07:18:01.943Z,17.10
2018-09-28T07:21:35.247Z,18.27
2018-09-28T07:25:08.530Z,19.70
2018-09-28T07:28:41.760Z,17.50
2018-09-28T07:32:15.039Z,17.33
2018-09-28T07:35:48.287Z,19.80
2018-09-28T07:39:21.608Z,17.67
2018-09-28T07:42:54.836Z,16.50
2018-09-28T07:46:28.073Z,18.40
2018-09-28T07:50:01.335Z,18.00
2018-09-28T07:53:34.572Z,18.73
2018-09-28T07:57:07.910Z,20.13
2018-09-28T08:00:41.173Z,19.27
2018-09-28T08:04:14.424Z,17.77
2018-09-28T08:07:47.692Z,19.57
2018-09-28T08:11:20.931Z,20.33
2018-09-28T08:14:54.408Z,18.17
2018-09-28T08:18:27.641Z,24.57
2018-09-28T08:22:00.893Z,17.37
2018-09-28T08:25:34.136Z,19.20
2018-09-28T08:29:07.400Z,19.43
2018-09-28T08:32:40.634Z,20.17
2018-09-28T08:36:13.894Z,18.93
2018-09-28T08:39:47.136Z,19.37
2018-09-28T08:43:20.382Z,18.67
2018-09-28T08:46:53.614Z,18.70
2018-09-28T08:50:26.853Z,19.97
2018-09-28T08:54:00.088Z,18.40
2018-09-28T08:57:33.368Z,18.70
2018-09-28T09:01:06.885Z,21.23
2018-09-28T09:04:40.135Z,19.90
2018-09-28T09:08:13.369Z,19.57
2018-09-28T09:11:46.611Z,18.00
2018-09-28T09:15:19.849Z,18.40
2018-09-28T09:18:53.093Z,18.90
2018-09-28T09:22:26.324Z,17.93
2018-09-28T09:26:00.114Z,18.27
2018-09-28T09:29:33.371Z,17.40
2018-09-28T09:33:06.608Z,18.17
2018-09-28T09:36:39.881Z,19.53
2018-09-28T09:40:13.113Z,17.77
2018-09-28T09:43:46.362Z,16.20
2018-09-28T09:47:19.607Z,17.87
2018-09-28T09:50:52.833Z,18.97
2018-09-28T09:54:26.096Z,18.63
2018-09-28T09:57:59.363Z,15.30
2018-09-28T10:01:38.129Z,16.33
2018-09-28T10:05:11.372Z,15.90
2018-09-28T10:08:44.624Z,18.33
2018-09-28T10:12:17.920Z,17.37
2018-09-28T10:15:51.142Z,17.03
2018-09-28T10:19:24.539Z,16.00
2018-09-28T10:22:57.658Z,19.70
2018-09-28T10:26:30.989Z,21.40
2018-09-28T10:30:04.511Z,22.17
2018-09-28T10:33:37.785Z,17.80
2018-09-28T10:37:11.012Z,23.13
2018-09-28T10:40:44.367Z,24.73
2018-09-28T10:44:17.544Z,21.63
2018-09-28T10:47:50.862Z,22.27
2018-09-28T10:51:24.165Z,23.33
2018-09-28T10:54:57.380Z,24.43
2018-09-28T10:58:30.710Z,23.37
2018-09-28T11:02:03.904Z,20.67
2018-09-28T11:05:37.159Z,21.10
2018-09-28T11:09:11.769Z,20.17
2018-09-28T11:12:44.988Z,25.30
2018-09-28T11:16:18.248Z,24.10
2018-09-28T11:19:51.492Z,21.20
2018-09-28T11:23:24.750Z,20.17
2018-09-28T11:26:58.003Z,20.53
2018-09-28T11:30:31.240Z,16.50
2018-09-28T11:34:04.492Z,19.53
2018-09-28T11:37:37.770Z,21.87
2018-09-28T11:41:10.993Z,15.60
2018-09-28T11:44:44.249Z,17.17
2018-09-28T11:48:17.480Z,15.03
2018-09-28T11:51:50.837Z,17.73
2018-09-28T11:55:24.070Z,19.33
2018-09-28T11:58:57.319Z,15.23
2018-09-28T12:02:30.567Z,16.70
2018-09-28T12:06:03.817Z,13.60
2018-09-28T12:09:37.066Z,13.90
2018-09-28T12:13:10.325Z,14.60
2018-09-28T12:16:43.544Z,12.93
2018-09-28T12:20:16.814Z,14.37
2018-09-28T12:23:50.048Z,12.00
2018-09-28T12:27:23.352Z,13.03
2018-09-28T12:30:56.538Z,14.83
2018-09-28T12:34:29.788Z,12.07
2018-09-28T12:38:03.071Z,14.33
2018-09-28T12:41:36.312Z,14.70
2018-09-28T12:45:09.575Z,13.30
2018-09-28T12:48:42.873Z,16.63
2018-09-28T12:52:16.147Z,12.80
2018-09-28T12:55:49.329Z,13.03
2018-09-28T12:59:22.604Z,12.83
2018-09-28T13:02:55.864Z,11.60
2018-09-28T13:06:29.148Z,13.97
2018-09-28T13:10:02.380Z,14.83
2018-09-28T13:13:35.620Z,15.27
2018-09-28T13:17:08.842Z,10.83
2018-09-28T13:20:42.128Z,10.93
2018-09-28T13:24:15.445Z,12.77
2018-09-28T13:27:48.663Z,12.97
2018-09-28T13:31:21.911Z,11.30
2018-09-28T13:34:55.145Z,12.10
2018-09-28T13:38:28.484Z,10.40
2018-09-28T13:42:01.721Z,13.07
2018-09-28T13:45:35.081Z,13.00
2018-09-28T13:49:08.206Z,14.27
2018-09-28T13:52:41.483Z,12.40
2018-09-28T13:56:14.742Z,11.53
2018-09-28T13:59:48.026Z,11.37
2018-09-28T14:03:21.278Z,12.37
2018-09-28T14:06:54.600Z,11.87
2018-09-28T14:10:28.013Z,9.63
2018-09-28T14:14:01.219Z,11.87
2018-09-28T14:17:34.462Z,9.43
2018-09-28T14:21:07.696Z,10.40
2018-09-28T14:24:41.008Z,12.37
2018-09-28T14:28:14.206Z,12.40
2018-09-28T14:31:47.469Z,11.57
2018-09-28T14:35:20.748Z,10.63
2018-09-28T14:38:54.076Z,11.67
2018-09-28T14:42:27.422Z,13.30
2018-09-28T14:46:00.560Z,12.37
2018-09-28T14:49:33.788Z,12.70
2018-09-28T14:53:07.226Z,14.00
2018-09-28T14:56:40.497Z,11.77
2018-09-28T15:00:13.804Z,13.43
2018-09-28T15:03:47.010Z,12.83
2018-09-28T15:07:20.241Z,17.57
2018-09-28T15:10:53.501Z,17.73
2018-09-28T15:14:26.835Z,17.70
2018-09-28T15:18:00.005Z,20.90
2018-09-28T15:21:33.252Z,20.53
2018-09-28T15:25:06.541Z,18.40
2018-09-28T15:28:39.786Z,12.03
2018-09-28T15:32:13.057Z,7.63
2018-09-28T15:35:46.304Z,9.33
2018-09-28T15:39:19.544Z,7.80
2018-09-28T15:42:52.800Z,7.57
2018-09-28T15:46:26.037Z,8.77
2018-09-28T15:50:00.092Z,7.73
2018-09-28T15:53:33.360Z,7.57
2018-09-28T15:57:06.684Z,9.70
2018-09-28T16:00:39.935Z,8.73
2018-09-28T16:04:13.190Z,8.57
2018-09-28T16:07:46.456Z,11.73
2018-09-28T16:11:19.705Z,9.80
2018-09-28T16:14:52.981Z,14.23
2018-09-28T16:18:26.283Z,9.07
2018-09-28T16:21:59.537Z,8.63
2018-09-28T16:25:32.773Z,8.50
2018-09-28T16:29:06.056Z,6.83
2018-09-28T16:32:39.296Z,5.83
2018-09-28T16:36:12.649Z,5.17
2018-09-28T16:39:45.824Z,6.30
2018-09-28T16:43:19.276Z,5.70
2018-09-28T16:46:52.524Z,5.27
2018-09-28T16:50:25.779Z,4.63
2018-09-28T16:53:59.010Z,4.20
2018-09-28T16:57:32.267Z,3.83
2018-09-28T17:01:05.548Z,3.50
2018-09-28T17:04:38.805Z,3.13
2018-09-28T17:08:12.060Z,3.77
2018-09-28T17:11:45.293Z,4.10
2018-09-28T17:15:18.790Z,5.40
2018-09-28T17:18:52.023Z,4.03
2018-09-28T17:22:26.842Z,4.27
2018-09-28T17:26:00.041Z,3.80
2018-09-28T17:29:33.309Z,3.13
2018-09-28T17:33:06.556Z,3.30
2018-09-28T17:36:39.807Z,3.30
2018-09-28T17:40:13.085Z,3.67
2018-09-28T17:43:46.413Z,2.37
2018-09-28T17:47:19.700Z,2.00
2018-09-28T17:50:52.944Z,3.10
2018-09-28T17:54:26.169Z,3.90
2018-09-28T17:57:59.424Z,3.50
2018-09-28T18:01:32.688Z,2.57
2018-09-28T18:05:05.915Z,3.00
2018-09-28T18:08:39.176Z,4.70
2018-09-28T18:12:12.456Z,3.73
2018-09-28T18:15:45.721Z,6.00
2018-09-28T18:19:18.956Z,4.40
2018-09-28T18:22:52.205Z,4.60
2018-09-28T18:26:25.453Z,4.87
2018-09-28T18:29:58.762Z,4.43
2018-09-28T18:33:36.230Z,5.20
2018-09-28T18:37:11.643Z,5.67
2018-09-28T18:40:45.561Z,8.33
2018-09-28T18:44:18.813Z,7.23
2018-09-28T18:47:52.123Z,6.20
2018-09-28T18:51:27.334Z,6.87
2018-09-28T18:55:03.546Z,6.40
2018-09-28T18:58:37.172Z,6.10
2018-09-28T19:02:10.701Z,6.43
2018-09-28T19:05:44.249Z,5.17
2018-09-28T19:09:17.591Z,4.30
2018-09-28T19:12:50.960Z,11.97
2018-09-28T19:16:24.173Z,4.80
2018-09-28T19:19:57.495Z,3.23
2018-09-28T19:23:30.724Z,6.20
2018-09-28T19:27:03.984Z,4.17
2018-09-28T19:30:37.264Z,7.00
2018-09-28T19:34:10.500Z,4.47
2018-09-28T19:37:43.740Z,4.70
2018-09-28T19:41:16.978Z,3.60
2018-09-28T19:44:50.235Z,11.57
2018-09-28T19:48:23.464Z,7.20
2018-09-28T19:51:56.695Z,4.03
2018-09-28T19:55:29.953Z,9.17
2018-09-28T19:59:03.201Z,11.10
2018-09-28T20:02:36.924Z,4.30
2018-09-28T20:06:10.607Z,7.70
2018-09-28T20:09:44.608Z,6.50
2018-09-28T20:13:17.840Z,6.70
2018-09-28T20:16:51.500Z,8.17
2018-09-28T20:20:24.912Z,8.07
2018-09-28T20:23:58.584Z,6.17
2018-09-28T20:27:31.872Z,11.97
2018-09-28T20:31:05.445Z,26.40
2018-09-28T20:34:38.713Z,5.50
2018-09-28T20:38:12.340Z,9.00
2018-09-28T20:41:45.588Z,13.00
2018-09-28T20:45:18.842Z,9.70
2018-09-28T20:48:52.085Z,6.47
2018-09-28T20:52:25.339Z,5.17
2018-09-28T20:55:58.589Z,9.77
2018-09-28T20:59:31.825Z,6.77
2018-09-28T21:03:05.056Z,6.37
2018-09-28T21:06:38.302Z,7.23
2018-09-28T21:10:11.552Z,5.13
2018-09-28T21:13:44.881Z,6.80
2018-09-28T21:17:18.133Z,11.23
2018-09-28T21:20:51.380Z,8.40
2018-09-28T21:24:24.629Z,5.57
2018-09-28T21:27:57.890Z,4.67
2018-09-28T21:31:31.129Z,6.00
2018-09-28T21:35:04.379Z,6.10
2018-09-28T21:38:37.616Z,4.70
2018-09-28T21:42:10.857Z,6.40
2018-09-28T21:45:44.101Z,3.97
2018-09-28T21:49:17.324Z,5.20
2018-09-28T21:52:50.655Z,6.13
2018-09-28T21:56:23.939Z,3.60
2018-09-28T21:59:57.174Z,9.13
2018-09-28T22:03:30.408Z,6.47
2018-09-28T22:07:03.639Z,7.33
2018-09-28T22:10:36.921Z,10.50
2018-09-28T22:14:10.279Z,6.23
2018-09-28T22:17:43.389Z,8.50
2018-09-28T22:21:16.628Z,4.57
2018-09-28T22:24:49.869Z,3.70
2018-09-28T22:28:23.103Z,7.80
2018-09-28T22:31:56.337Z,4.40
2018-09-28T22:35:29.559Z,8.10
2018-09-28T22:39:02.856Z,6.57
2018-09-28T22:42:36.112Z,4.37
2018-09-28T22:46:09.335Z,6.63
2018-09-28T22:49:42.559Z,5.53
2018-09-28T22:53:15.792Z,5.30
2018-09-28T22:56:49.036Z,7.33
2018-09-28T23:00:22.273Z,6.20
2018-09-28T23:03:55.510Z,8.60
2018-09-28T23:07:28.758Z,4.40
2018-09-28T23:11:01.981Z,7.13
2018-09-28T23:14:35.217Z,4.20
2018-09-28T23:18:08.453Z,7.47
2018-09-28T23:21:41.786Z,6.67
2018-09-28T23:25:14.929Z,7.80
2018-09-28T23:28:48.168Z,11.63
2018-09-28T23:32:21.403Z,5.83
2018-09-28T23:35:54.629Z,5.87
2018-09-28T23:39:27.864Z,5.10
2018-09-28T23:43:01.102Z,6.03
2018-09-28T23:46:34.329Z,5.40
2018-09-28T23:50:07.896Z,5.27
2018-09-28T23:53:41.133Z,5.40
2018-09-28T23:57:14.377Z,6.30
